createdAt,value
2022-11-29T00:01:37.560Z,17.20
2022-11-29T00:04:05.198Z,17.03
2022-11-29T00:06:34.135Z,18.83
2022-11-29T00:09:06.618Z,18.03
2022-11-29T00:11:55.144Z,20.20
2022-11-29T00:14:23.351Z,19.17
2022-11-29T00:16:59.324Z,18.93
2022-11-29T00:19:26.542Z,18.67
2022-11-29T00:21:53.656Z,20.50
2022-11-29T00:24:21.006Z,21.13
2022-11-29T00:26:48.206Z,21.03
2022-11-29T00:29:15.342Z,18.90
2022-11-29T00:31:43.235Z,19.17
2022-11-29T00:34:11.940Z,21.20
2022-11-29T00:36:39.927Z,20.57
2022-11-29T00:39:07.559Z,21.70
2022-11-29T00:41:34.635Z,21.60
2022-11-29T00:44:01.652Z,22.27
2022-11-29T00:46:28.698Z,22.17
2022-11-29T00:48:55.834Z,20.47
2022-11-29T00:51:22.849Z,21.70
2022-11-29T00:53:49.902Z,20.70
2022-11-29T00:56:17.310Z,21.70
2022-11-29T00:58:44.450Z,21.70
2022-11-29T01:01:12.014Z,21.97
2022-11-29T01:03:39.377Z,23.30
2022-11-29T01:06:15.890Z,22.90
2022-11-29T01:08:43.407Z,22.60
2022-11-29T01:11:21.411Z,20.27
2022-11-29T01:13:51.494Z,20.53
2022-11-29T01:16:18.911Z,21.30
2022-11-29T01:18:46.102Z,21.60
2022-11-29T01:21:17.434Z,22.40
2022-11-29T01:23:46.540Z,23.00
2022-11-29T01:26:33.848Z,23.70
2022-11-29T01:29:00.943Z,24.40
2022-11-29T01:31:36.309Z,23.67
2022-11-29T01:34:06.327Z,23.60
2022-11-29T01:36:34.588Z,25.73
2022-11-29T01:39:04.624Z,25.27
2022-11-29T01:41:34.809Z,24.10
2022-11-29T01:44:26.820Z,23.97
2022-11-29T01:46:54.901Z,25.50
2022-11-29T01:49:27.256Z,26.20
2022-11-29T01:52:12.798Z,25.83
2022-11-29T01:54:45.843Z,25.47
2022-11-29T01:57:13.813Z,24.03
2022-11-29T01:59:50.248Z,27.00
2022-11-29T02:02:40.239Z,24.13
2022-11-29T02:05:08.575Z,27.03
2022-11-29T02:07:36.310Z,24.60
2022-11-29T02:10:05.646Z,25.07
2022-11-29T02:12:43.467Z,25.70
2022-11-29T02:15:22.393Z,25.17
2022-11-29T02:18:24.509Z,25.37
2022-11-29T02:21:26.603Z,25.40
2022-11-29T02:24:35.449Z,25.73
2022-11-29T02:27:21.025Z,25.77
2022-11-29T02:30:27.662Z,28.27
2022-11-29T02:33:22.688Z,25.43
2022-11-29T02:36:32.847Z,27.00
2022-11-29T02:39:14.718Z,25.90
2022-11-29T02:41:56.676Z,26.20
2022-11-29T02:44:59.298Z,26.60
2022-11-29T02:47:57.188Z,28.40
2022-11-29T02:51:14.192Z,27.17
2022-11-29T02:54:08.528Z,27.50
2022-11-29T02:56:51.349Z,26.50
2022-11-29T02:59:53.164Z,27.67
2022-11-29T03:02:49.687Z,27.23
2022-11-29T03:05:41.984Z,27.80
2022-11-29T03:08:32.467Z,27.23
2022-11-29T03:11:06.961Z,29.20
2022-11-29T03:14:11.272Z,29.87
2022-11-29T03:16:45.593Z,27.13
2022-11-29T03:19:18.562Z,31.30
2022-11-29T03:22:09.497Z,31.47
2022-11-29T03:24:55.119Z,27.77
2022-11-29T03:27:56.867Z,29.33
2022-11-29T03:30:24.302Z,28.70
2022-11-29T03:33:34.199Z,28.07
2022-11-29T03:36:43.836Z,28.70
2022-11-29T03:39:33.904Z,29.40
2022-11-29T03:42:09.190Z,29.40
2022-11-29T03:45:06.746Z,29.57
2022-11-29T03:47:49.485Z,29.73
2022-11-29T03:50:32.733Z,30.70
2022-11-29T03:53:11.927Z,32.27
2022-11-29T03:55:57.445Z,30.37
2022-11-29T03:58:39.536Z,32.20
2022-11-29T04:01:22.526Z,31.83
2022-11-29T04:04:18.251Z,30.53
2022-11-29T04:07:17.549Z,30.40
2022-11-29T04:10:27.182Z,29.03
2022-11-29T04:13:48.958Z,28.63
2022-11-29T04:16:28.207Z,28.27
2022-11-29T04:19:32.257Z,29.60
2022-11-29T04:22:33.365Z,27.10
2022-11-29T04:25:40.828Z,28.23
2022-11-29T04:28:52.528Z,27.30
2022-11-29T04:31:38.999Z,26.90
2022-11-29T04:34:17.968Z,30.07
2022-11-29T04:37:07.053Z,29.83
2022-11-29T04:40:08.557Z,31.07
2022-11-29T04:43:09.410Z,29.90
2022-11-29T04:46:10.433Z,27.50
2022-11-29T04:48:54.244Z,27.50
2022-11-29T04:51:57.521Z,28.73
2022-11-29T04:55:07.031Z,27.63
2022-11-29T04:57:51.652Z,26.73
2022-11-29T05:00:23.445Z,26.13
2022-11-29T05:02:57.476Z,32.30
2022-11-29T05:05:47.778Z,27.40
2022-11-29T05:08:26.300Z,27.37
2022-11-29T05:11:26.545Z,26.17
2022-11-29T05:14:18.890Z,26.07
2022-11-29T05:17:05.833Z,26.20
2022-11-29T05:20:18.363Z,24.43
2022-11-29T05:23:22.253Z,25.90
2022-11-29T05:26:01.633Z,26.60
2022-11-29T05:29:06.063Z,24.57
2022-11-29T05:31:51.618Z,25.60
2022-11-29T05:34:54.668Z,24.30
2022-11-29T05:37:49.513Z,26.43
2022-11-29T05:40:44.330Z,23.17
2022-11-29T05:43:47.377Z,27.00
2022-11-29T05:46:28.279Z,24.83
2022-11-29T05:49:19.873Z,25.87
2022-11-29T05:52:26.642Z,27.67
2022-11-29T05:55:15.316Z,25.20
2022-11-29T05:58:12.409Z,23.53
2022-11-29T06:01:01.981Z,22.53
2022-11-29T06:03:54.993Z,23.33
2022-11-29T06:06:48.875Z,23.30
2022-11-29T06:09:40.939Z,22.07
2022-11-29T06:12:22.027Z,22.70
2022-11-29T06:15:23.482Z,25.70
2022-11-29T06:17:57.822Z,21.83
2022-11-29T06:21:02.814Z,20.83
2022-11-29T06:23:35.096Z,21.33
2022-11-29T06:26:44.960Z,22.73
2022-11-29T06:29:42.418Z,21.43
2022-11-29T06:33:08.316Z,22.30
2022-11-29T06:35:48.824Z,22.10
2022-11-29T06:38:26.375Z,22.10
2022-11-29T06:40:58.694Z,20.47
2022-11-29T06:43:29.274Z,23.73
2022-11-29T06:46:04.980Z,20.10
2022-11-29T06:48:45.125Z,23.17
2022-11-29T06:51:44.490Z,21.37
2022-11-29T06:54:25.740Z,23.93
2022-11-29T06:57:14.723Z,22.40
2022-11-29T07:00:03.893Z,21.33
2022-11-29T07:03:05.046Z,23.77
2022-11-29T07:05:34.895Z,22.30
2022-11-29T07:08:17.297Z,22.77
2022-11-29T07:10:45.581Z,21.63
2022-11-29T07:13:13.799Z,23.40
2022-11-29T07:16:07.000Z,22.10
2022-11-29T07:19:04.660Z,23.17
2022-11-29T07:21:54.470Z,23.63
2022-11-29T07:24:39.603Z,25.50
2022-11-29T07:27:18.353Z,21.93
2022-11-29T07:30:13.727Z,23.30
2022-11-29T07:33:04.277Z,24.63
2022-11-29T07:35:55.289Z,22.53
2022-11-29T07:39:12.631Z,23.30
2022-11-29T07:42:07.529Z,21.30
2022-11-29T07:44:40.340Z,19.93
2022-11-29T07:47:09.267Z,20.10
2022-11-29T07:49:36.335Z,21.30
2022-11-29T07:52:03.743Z,21.17
2022-11-29T07:54:31.353Z,20.93
2022-11-29T07:56:58.369Z,20.43
2022-11-29T07:59:25.416Z,20.50
2022-11-29T08:01:52.840Z,21.23
2022-11-29T08:04:19.915Z,18.80
2022-11-29T08:06:49.608Z,19.87
2022-11-29T08:09:16.868Z,19.27
2022-11-29T08:11:44.768Z,19.30
2022-11-29T08:14:11.829Z,18.33
2022-11-29T08:16:38.901Z,18.93
2022-11-29T08:19:06.452Z,20.80
2022-11-29T08:21:33.512Z,17.80
2022-11-29T08:24:00.588Z,16.83
2022-11-29T08:26:31.800Z,17.60
2022-11-29T08:28:59.191Z,17.70
2022-11-29T08:31:26.281Z,18.80
2022-11-29T08:33:53.607Z,16.67
2022-11-29T08:36:21.668Z,17.73
2022-11-29T08:38:49.283Z,18.13
2022-11-29T08:41:17.762Z,17.10
2022-11-29T08:43:45.038Z,16.43
2022-11-29T08:46:16.909Z,16.47
2022-11-29T08:48:47.207Z,15.90
2022-11-29T08:51:14.551Z,15.97
2022-11-29T08:53:41.673Z,16.13
2022-11-29T08:56:59.625Z,15.67
2022-11-29T08:59:00.936Z,17.23
2022-11-29T09:01:29.363Z,15.57
2022-11-29T09:03:59.682Z,14.80
2022-11-29T09:06:32.317Z,15.50
2022-11-29T09:09:00.764Z,17.27
2022-11-29T09:11:30.043Z,15.37
2022-11-29T09:14:01.561Z,15.97
2022-11-29T09:16:32.814Z,18.30
2022-11-29T09:19:00.181Z,14.90
2022-11-29T09:21:30.038Z,16.60
2022-11-29T09:24:01.784Z,15.87
2022-11-29T09:26:34.244Z,15.00
2022-11-29T09:29:06.663Z,15.53
2022-11-29T09:31:35.236Z,14.03
2022-11-29T09:34:02.864Z,14.03
2022-11-29T09:36:31.265Z,14.33
2022-11-29T09:39:02.667Z,14.30
2022-11-29T09:41:58.630Z,13.50
2022-11-29T09:45:05.666Z,12.00
2022-11-29T09:47:58.227Z,12.77
2022-11-29T09:50:35.096Z,13.50
2022-11-29T09:53:36.313Z,14.13
2022-11-29T09:56:29.273Z,13.43
2022-11-29T09:59:26.046Z,13.60
2022-11-29T10:02:00.090Z,11.10
2022-11-29T10:04:32.716Z,12.63
2022-11-29T10:07:09.087Z,13.00
2022-11-29T10:09:51.635Z,15.10
2022-11-29T10:12:44.372Z,13.80
2022-11-29T10:15:26.005Z,11.97
2022-11-29T10:18:44.132Z,11.63
2022-11-29T10:21:18.376Z,12.43
2022-11-29T10:23:55.997Z,11.73
2022-11-29T10:26:25.926Z,12.03
2022-11-29T10:28:57.693Z,11.80
2022-11-29T10:31:33.428Z,13.03
2022-11-29T10:34:10.739Z,12.60
2022-11-29T10:36:54.724Z,12.43
2022-11-29T10:39:47.856Z,11.90
2022-11-29T10:42:42.993Z,13.47
2022-11-29T10:45:35.473Z,14.17
2022-11-29T10:48:07.862Z,13.27
2022-11-29T10:50:37.392Z,13.03
2022-11-29T10:53:11.496Z,13.07
2022-11-29T10:55:57.611Z,15.17
2022-11-29T10:58:30.175Z,13.20
2022-11-29T11:01:07.050Z,13.10
2022-11-29T11:03:41.888Z,14.07
2022-11-29T11:06:19.786Z,16.43
2022-11-29T11:08:50.629Z,15.80
2022-11-29T11:11:50.964Z,13.43
2022-11-29T11:14:41.820Z,15.97
2022-11-29T11:17:32.920Z,16.00
2022-11-29T11:20:09.010Z,15.00
2022-11-29T11:22:39.931Z,14.40
2022-11-29T11:25:34.734Z,16.30
2022-11-29T11:28:31.910Z,15.13
2022-11-29T11:31:04.554Z,17.07
2022-11-29T11:33:38.203Z,15.00
2022-11-29T11:36:20.435Z,15.00
2022-11-29T11:38:52.466Z,16.40
2022-11-29T11:41:52.312Z,14.90
2022-11-29T11:47:29.470Z,15.73
2022-11-29T11:50:28.229Z,15.90
2022-11-29T11:53:05.157Z,15.80
2022-11-29T11:55:43.523Z,17.00
2022-11-29T11:58:13.642Z,15.33
2022-11-29T12:01:04.781Z,15.33
2022-11-29T12:03:48.321Z,13.30
2022-11-29T12:06:52.256Z,16.53
2022-11-29T12:09:40.518Z,14.97
2022-11-29T12:12:27.392Z,13.57
2022-11-29T12:15:16.423Z,14.70
2022-11-29T12:18:12.306Z,14.60
2022-11-29T12:21:01.661Z,14.50
2022-11-29T12:23:44.493Z,15.50
2022-11-29T12:26:55.273Z,15.20
2022-11-29T12:29:17.456Z,16.90
2022-11-29T12:32:00.338Z,17.93
2022-11-29T12:34:51.933Z,15.77
2022-11-29T12:38:04.526Z,16.50
2022-11-29T12:40:57.724Z,17.43
2022-11-29T12:43:36.534Z,17.30
2022-11-29T12:46:25.090Z,15.10
2022-11-29T12:48:55.036Z,16.50
2022-11-29T12:51:58.038Z,18.50
2022-11-29T12:54:52.791Z,17.37
2022-11-29T12:57:53.580Z,17.83
2022-11-29T13:00:21.426Z,18.23
2022-11-29T13:03:19.453Z,19.00
2022-11-29T13:06:07.723Z,18.87
2022-11-29T13:09:11.375Z,17.77
2022-11-29T13:11:45.405Z,19.67
2022-11-29T13:14:55.263Z,17.73
2022-11-29T13:17:52.034Z,17.90
2022-11-29T13:20:44.172Z,17.37
2022-11-29T13:23:45.925Z,17.80
2022-11-29T13:26:28.373Z,17.87
2022-11-29T13:28:57.285Z,17.23
2022-11-29T13:31:25.600Z,17.83
2022-11-29T13:34:15.116Z,18.87
2022-11-29T13:37:05.487Z,19.10
2022-11-29T13:40:11.356Z,18.10
2022-11-29T13:42:55.243Z,18.10
2022-11-29T13:45:37.799Z,17.97
2022-11-29T13:48:37.061Z,20.27
2022-11-29T13:51:41.156Z,20.13
2022-11-29T13:54:30.700Z,19.70
2022-11-29T13:57:16.577Z,20.30
2022-11-29T13:59:50.886Z,22.20
2022-11-29T14:02:30.783Z,19.87
2022-11-29T14:04:58.478Z,19.50
2022-11-29T14:07:25.770Z,21.60
2022-11-29T14:10:02.243Z,22.50
2022-11-29T14:12:50.829Z,22.07
2022-11-29T14:15:31.186Z,23.00
2022-11-29T14:18:09.492Z,22.90
2022-11-29T14:20:39.583Z,23.27
2022-11-29T14:23:13.141Z,23.20
2022-11-29T14:26:07.697Z,22.70
2022-11-29T14:28:40.078Z,22.97
2022-11-29T14:31:09.379Z,22.10
2022-11-29T14:33:51.582Z,21.20
2022-11-29T14:36:26.013Z,21.17
2022-11-29T14:39:05.015Z,22.83
2022-11-29T14:42:01.879Z,23.47
2022-11-29T14:44:31.673Z,22.00
2022-11-29T14:47:31.885Z,23.57
2022-11-29T14:50:03.762Z,21.53
2022-11-29T14:52:37.976Z,21.20
2022-11-29T14:55:30.005Z,21.03
2022-11-29T14:58:04.093Z,21.37
2022-11-29T15:00:47.644Z,23.43
2022-11-29T15:03:32.583Z,21.50
2022-11-29T15:06:18.106Z,21.23
2022-11-29T15:09:14.503Z,20.13
2022-11-29T15:11:53.903Z,18.57
2022-11-29T15:14:44.736Z,20.70
2022-11-29T15:17:55.060Z,19.83
2022-11-29T15:20:42.196Z,18.87
2022-11-29T15:23:18.589Z,18.73
2022-11-29T15:25:52.405Z,18.30
2022-11-29T15:28:28.584Z,18.73
2022-11-29T15:31:12.114Z,20.00
2022-11-29T15:33:45.208Z,20.20
2022-11-29T15:36:21.892Z,19.43
2022-11-29T15:38:53.020Z,22.47
2022-11-29T15:41:34.367Z,19.10
2022-11-29T15:44:07.389Z,19.37
2022-11-29T15:46:35.840Z,20.97
2022-11-29T15:49:27.435Z,21.40
2022-11-29T15:52:03.468Z,20.90
2022-11-29T15:54:42.819Z,20.17
2022-11-29T15:57:24.730Z,24.50
2022-11-29T16:00:02.902Z,18.97
2022-11-29T16:02:37.072Z,22.17
2022-11-29T16:05:31.272Z,21.83
2022-11-29T16:08:04.416Z,20.43
2022-11-29T16:10:43.628Z,22.80
2022-11-29T16:13:25.871Z,24.73
2022-11-29T16:16:07.558Z,23.70
2022-11-29T16:18:35.513Z,23.43
2022-11-29T16:21:06.881Z,26.77
2022-11-29T16:23:42.235Z,25.10
2022-11-29T16:26:22.419Z,23.90
2022-11-29T16:28:53.009Z,23.07
2022-11-29T16:31:37.978Z,26.80
2022-11-29T16:34:21.767Z,26.70
2022-11-29T16:37:21.859Z,25.10
2022-11-29T16:39:54.710Z,27.20
2022-11-29T16:42:28.363Z,25.57
2022-11-29T16:45:33.732Z,24.60
2022-11-29T16:48:02.849Z,25.00
2022-11-29T16:50:32.290Z,23.87
2022-11-29T16:53:35.773Z,25.60
2022-11-29T16:56:04.659Z,25.23
2022-11-29T16:58:35.487Z,25.97
2022-11-29T17:01:28.264Z,26.87
2022-11-29T17:03:58.027Z,26.27
2022-11-29T17:06:26.258Z,26.00
2022-11-29T17:08:57.063Z,25.00
2022-11-29T17:11:24.608Z,25.03
2022-11-29T17:13:53.199Z,28.13
2022-11-29T17:16:23.098Z,24.67
2022-11-29T17:18:52.724Z,26.37
2022-11-29T17:21:26.392Z,24.53
2022-11-29T17:23:54.411Z,25.27
2022-11-29T17:26:22.778Z,25.13
2022-11-29T17:28:52.134Z,34.30
2022-11-29T17:31:22.769Z,24.47
2022-11-29T17:33:51.114Z,26.90
2022-11-29T17:36:20.422Z,25.77
2022-11-29T17:38:48.080Z,25.20
2022-11-29T17:41:22.812Z,25.17
2022-11-29T17:43:51.875Z,26.23
2022-11-29T17:46:21.938Z,27.00
2022-11-29T17:48:50.059Z,26.63
2022-11-29T17:51:49.931Z,27.60
2022-11-29T17:54:09.715Z,28.60
2022-11-29T17:56:36.767Z,26.77
2022-11-29T17:59:05.004Z,26.43
2022-11-29T18:01:34.830Z,25.80
2022-11-29T18:04:05.538Z,26.80
2022-11-29T18:06:39.598Z,27.23
2022-11-29T18:09:09.354Z,26.90
2022-11-29T18:11:48.001Z,26.27
2022-11-29T18:14:28.451Z,26.97
2022-11-29T18:16:55.755Z,26.37
2022-11-29T18:19:23.770Z,25.77
2022-11-29T18:21:51.869Z,26.50
2022-11-29T18:24:19.647Z,26.63
2022-11-29T18:26:47.014Z,27.30
2022-11-29T18:29:14.736Z,27.40
2022-11-29T18:31:44.967Z,25.00
2022-11-29T18:34:14.178Z,27.83
2022-11-29T18:36:46.407Z,26.17
2022-11-29T18:39:19.356Z,26.17
2022-11-29T18:41:50.847Z,29.50
2022-11-29T18:44:21.760Z,28.27
2022-11-29T18:46:49.077Z,26.60
2022-11-29T18:49:17.995Z,28.43
2022-11-29T18:51:46.545Z,33.70
2022-11-29T18:54:15.974Z,27.30
2022-11-29T18:56:44.936Z,27.80
2022-11-29T18:59:16.936Z,27.50
2022-11-29T19:01:46.512Z,28.07
2022-11-29T19:04:20.012Z,26.43
2022-11-29T19:06:47.847Z,24.63
2022-11-29T19:09:21.825Z,26.27
2022-11-29T19:11:49.874Z,27.37
2022-11-29T19:14:17.479Z,26.10
2022-11-29T19:16:47.582Z,25.67
2022-11-29T19:19:14.823Z,28.77
2022-11-29T19:21:42.561Z,25.47
2022-11-29T19:24:15.151Z,28.13
2022-11-29T19:26:45.536Z,27.00
2022-11-29T19:29:16.458Z,29.23
2022-11-29T19:31:43.685Z,24.43
2022-11-29T19:34:11.426Z,26.47
2022-11-29T19:36:43.678Z,28.30
2022-11-29T19:39:16.620Z,28.60
2022-11-29T19:41:47.200Z,30.53
2022-11-29T19:44:14.686Z,27.50
2022-11-29T19:46:48.723Z,28.40
2022-11-29T19:49:19.422Z,27.97
2022-11-29T19:51:46.826Z,27.83
2022-11-29T19:54:13.999Z,26.63
2022-11-29T19:56:41.984Z,28.80
2022-11-29T19:59:09.404Z,29.50
2022-11-29T20:01:42.042Z,29.23
2022-11-29T20:04:12.111Z,27.27
2022-11-29T20:06:40.589Z,26.10
2022-11-29T20:09:07.942Z,28.73
2022-11-29T20:11:35.678Z,32.20
2022-11-29T20:14:05.560Z,31.10
2022-11-29T20:16:34.539Z,29.20
2022-11-29T20:19:01.873Z,29.43
2022-11-29T20:21:32.602Z,29.87
2022-11-29T20:24:04.264Z,29.87
2022-11-29T20:26:33.920Z,31.60
2022-11-29T20:29:02.318Z,29.93
2022-11-29T20:31:31.393Z,32.27
2022-11-29T20:33:58.884Z,32.23
2022-11-29T20:36:47.032Z,29.93
2022-11-29T20:39:48.146Z,32.33
2022-11-29T20:42:53.529Z,30.37
2022-11-29T20:45:21.122Z,29.77
2022-11-29T20:48:14.209Z,29.93
2022-11-29T20:50:47.083Z,29.80
2022-11-29T20:53:36.684Z,32.37
2022-11-29T20:56:05.637Z,30.77
2022-11-29T20:58:33.295Z,32.47
2022-11-29T21:01:01.450Z,29.77
2022-11-29T21:03:30.207Z,32.37
2022-11-29T21:06:00.662Z,28.57
2022-11-29T21:08:27.899Z,30.77
2022-11-29T21:11:07.930Z,32.33
2022-11-29T21:13:35.500Z,30.93
2022-11-29T21:16:03.681Z,31.20
2022-11-29T21:18:31.923Z,30.93
2022-11-29T21:21:19.587Z,29.73
2022-11-29T21:24:38.994Z,30.07
2022-11-29T21:27:11.100Z,31.27
2022-11-29T21:29:38.655Z,32.10
2022-11-29T21:32:06.352Z,29.80
2022-11-29T21:34:34.112Z,32.17
2022-11-29T21:37:01.221Z,33.37
2022-11-29T21:39:35.173Z,31.53
2022-11-29T21:42:02.847Z,31.40
2022-11-29T21:44:29.958Z,30.97
2022-11-29T21:46:57.041Z,32.93
2022-11-29T21:49:24.276Z,30.13
2022-11-29T21:51:51.305Z,30.37
2022-11-29T21:54:18.345Z,28.57
2022-11-29T21:56:45.320Z,30.20
2022-11-29T21:59:12.315Z,28.90
2022-11-29T22:01:39.533Z,29.33
2022-11-29T22:04:06.712Z,30.97
2022-11-29T22:06:33.913Z,30.10
2022-11-29T22:09:01.123Z,28.27
2022-11-29T22:11:31.246Z,29.70
2022-11-29T22:14:19.236Z,29.70
2022-11-29T22:16:58.313Z,28.47
2022-11-29T22:19:31.977Z,26.30
2022-11-29T22:22:05.433Z,27.37
2022-11-29T22:24:35.840Z,27.40
2022-11-29T22:27:03.154Z,28.60
2022-11-29T22:29:30.301Z,25.37
2022-11-29T22:31:59.266Z,29.40
2022-11-29T22:34:27.554Z,27.53
2022-11-29T22:36:56.011Z,27.83
2022-11-29T22:39:24.000Z,28.00
2022-11-29T22:41:54.765Z,28.67
2022-11-29T22:44:23.890Z,27.77
2022-11-29T22:46:51.225Z,28.23
2022-11-29T22:49:18.459Z,27.50
2022-11-29T22:51:45.590Z,29.00
2022-11-29T22:54:15.520Z,29.87
2022-11-29T22:56:44.592Z,27.47
2022-11-29T22:59:11.778Z,28.03
2022-11-29T23:01:41.136Z,27.10
2022-11-29T23:04:10.768Z,26.80
2022-11-29T23:06:42.279Z,26.67
2022-11-29T23:09:17.013Z,27.97
2022-11-29T23:11:45.930Z,27.60
2022-11-29T23:14:13.367Z,29.77
2022-11-29T23:16:40.763Z,28.70
2022-11-29T23:19:07.975Z,29.77
2022-11-29T23:21:39.839Z,25.37
2022-11-29T23:24:07.910Z,28.00
2022-11-29T23:26:39.560Z,27.27
2022-11-29T23:29:10.432Z,28.47
2022-11-29T23:31:37.772Z,26.73
2022-11-29T23:34:05.405Z,27.93
2022-11-29T23:36:32.900Z,27.57
2022-11-29T23:39:00.521Z,28.00
2022-11-29T23:41:27.655Z,25.87
2022-11-29T23:43:57.466Z,26.40
2022-11-29T23:46:25.565Z,26.90
2022-11-29T23:48:52.959Z,26.83
2022-11-29T23:51:20.927Z,28.40
2022-11-29T23:53:53.116Z,25.60
2022-11-29T23:56:21.542Z,27.97
2022-11-29T23:58:49.227Z,27.73
